Stony Plain, Canada
Current Conditions -  °F | °C
As of 7:00 PM on Saturday 22 Nov 2014 (Local Time) from CWSE Reporting Station
Light Snow Light Snow  
Wind Chill: -10°   Ceiling: 1000
Heat Index: -5°   Visibility: 2mi
Dew Point: -6°   Wind: 9mph
Humidity: 94%   Direction: 310°NW
Pressure: 29.51"   Gusts: NA
Location:  53.53°N, 114.01°W
Report Text: CWSE 230200Z 31008KT 2SM -SN VV010 M05/M06 A2951 RMK SLP027 LAST OBS/NEXT 231100 UTC /S02/ T10491058 WSI/SWOB
Loading
Personal Weather Stations






























Interactive Weather Map New forecast layout! Learn more

10-Day Weather Forecast

Advertisements
Track Severe Weather on mobile